sensor_id;sensor_type;location;lat;lon;timestamp;P1;durP1;ratioP1;P2;durP2;ratioP2
57107;SDS011;42987;52.916;6.542;2022-12-29T00:01:38;8.75;;;7.95;;
57107;SDS011;42987;52.916;6.542;2022-12-29T00:04:04;10.88;;;9.98;;
57107;SDS011;42987;52.916;6.542;2022-12-29T00:06:30;11.48;;;10.38;;
57107;SDS011;42987;52.916;6.542;2022-12-29T00:08:56;10.75;;;9.90;;
57107;SDS011;42987;52.916;6.542;2022-12-29T00:11:23;11.88;;;10.88;;
57107;SDS011;42987;52.916;6.542;2022-12-29T00:13:54;12.05;;;11.05;;
57107;SDS011;42987;52.916;6.542;2022-12-29T00:16:40;11.85;;;10.82;;
57107;SDS011;42987;52.916;6.542;2022-12-29T00:19:08;12.68;;;11.57;;
57107;SDS011;42987;52.916;6.542;2022-12-29T00:21:55;11.07;;;10.18;;
57107;SDS011;42987;52.916;6.542;2022-12-29T00:24:40;11.07;;;10.07;;
57107;SDS011;42987;52.916;6.542;2022-12-29T00:27:25;10.77;;;9.88;;
57107;SDS011;42987;52.916;6.542;2022-12-29T00:30:11;10.57;;;9.57;;
57107;SDS011;42987;52.916;6.542;2022-12-29T00:33:00;9.02;;;8.23;;
57107;SDS011;42987;52.916;6.542;2022-12-29T00:35:52;10.68;;;8.85;;
57107;SDS011;42987;52.916;6.542;2022-12-29T00:38:21;9.60;;;8.60;;
57107;SDS011;42987;52.916;6.542;2022-12-29T00:41:05;8.50;;;7.70;;
57107;SDS011;42987;52.916;6.542;2022-12-29T00:43:50;9.52;;;8.30;;
57107;SDS011;42987;52.916;6.542;2022-12-29T00:46:31;8.48;;;7.57;;
57107;SDS011;42987;52.916;6.542;2022-12-29T00:49:05;8.95;;;8.15;;
57107;SDS011;42987;52.916;6.542;2022-12-29T00:51:51;7.88;;;7.07;;
57107;SDS011;42987;52.916;6.542;2022-12-29T00:54:17;8.52;;;7.28;;
57107;SDS011;42987;52.916;6.542;2022-12-29T00:56:47;7.90;;;7.10;;
57107;SDS011;42987;52.916;6.542;2022-12-29T00:59:14;7.70;;;6.90;;
57107;SDS011;42987;52.916;6.542;2022-12-29T01:01:41;7.45;;;6.65;;
57107;SDS011;42987;52.916;6.542;2022-12-29T01:04:07;7.53;;;6.82;;
57107;SDS011;42987;52.916;6.542;2022-12-29T01:06:34;7.68;;;6.78;;
57107;SDS011;42987;52.916;6.542;2022-12-29T01:11:49;6.70;;;6.10;;
57107;SDS011;42987;52.916;6.542;2022-12-29T01:14:19;6.28;;;5.68;;
57107;SDS011;42987;52.916;6.542;2022-12-29T01:16:45;7.03;;;6.32;;
57107;SDS011;42987;52.916;6.542;2022-12-29T01:19:14;8.10;;;6.03;;
57107;SDS011;42987;52.916;6.542;2022-12-29T01:21:41;7.57;;;5.95;;
57107;SDS011;42987;52.916;6.542;2022-12-29T01:24:19;7.53;;;5.80;;
57107;SDS011;42987;52.916;6.542;2022-12-29T01:26:56;6.22;;;5.50;;
57107;SDS011;42987;52.916;6.542;2022-12-29T01:29:22;6.07;;;5.47;;
57107;SDS011;42987;52.916;6.542;2022-12-29T01:31:48;5.85;;;5.25;;
57107;SDS011;42987;52.916;6.542;2022-12-29T01:34:14;5.40;;;4.90;;
57107;SDS011;42987;52.916;6.542;2022-12-29T01:36:40;6.32;;;5.50;;
57107;SDS011;42987;52.916;6.542;2022-12-29T01:39:06;5.88;;;5.25;;
57107;SDS011;42987;52.916;6.542;2022-12-29T01:41:32;5.50;;;4.97;;
57107;SDS011;42987;52.916;6.542;2022-12-29T01:43:58;6.18;;;4.78;;
57107;SDS011;42987;52.916;6.542;2022-12-29T01:51:49;7.50;;;4.57;;
57107;SDS011;42987;52.916;6.542;2022-12-29T01:54:22;5.43;;;4.45;;
57107;SDS011;42987;52.916;6.542;2022-12-29T01:57:08;6.93;;;4.53;;
57107;SDS011;42987;52.916;6.542;2022-12-29T01:59:39;4.85;;;4.35;;
57107;SDS011;42987;52.916;6.542;2022-12-29T02:02:17;6.18;;;3.88;;
57107;SDS011;42987;52.916;6.542;2022-12-29T02:04:46;6.43;;;4.53;;
57107;SDS011;42987;52.916;6.542;2022-12-29T02:07:20;5.68;;;4.70;;
57107;SDS011;42987;52.916;6.542;2022-12-29T02:09:51;6.05;;;4.10;;
57107;SDS011;42987;52.916;6.542;2022-12-29T02:12:20;5.93;;;4.53;;
57107;SDS011;42987;52.916;6.542;2022-12-29T02:14:48;6.32;;;4.55;;
57107;SDS011;42987;52.916;6.542;2022-12-29T02:25:30;4.93;;;3.85;;
57107;SDS011;42987;52.916;6.542;2022-12-29T02:28:24;5.63;;;3.58;;
57107;SDS011;42987;52.916;6.542;2022-12-29T02:34:06;4.57;;;3.72;;
57107;SDS011;42987;52.916;6.542;2022-12-29T02:39:15;5.05;;;3.97;;
57107;SDS011;42987;52.916;6.542;2022-12-29T02:42:22;5.22;;;3.80;;
57107;SDS011;42987;52.916;6.542;2022-12-29T02:45:00;4.53;;;3.25;;
57107;SDS011;42987;52.916;6.542;2022-12-29T02:50:47;5.22;;;3.10;;
57107;SDS011;42987;52.916;6.542;2022-12-29T02:53:38;4.70;;;3.10;;
57107;SDS011;42987;52.916;6.542;2022-12-29T02:56:29;5.35;;;3.50;;
57107;SDS011;42987;52.916;6.542;2022-12-29T02:58:55;4.72;;;3.15;;
57107;SDS011;42987;52.916;6.542;2022-12-29T03:04:36;4.22;;;2.63;;
57107;SDS011;42987;52.916;6.542;2022-12-29T03:10:09;3.15;;;2.40;;
57107;SDS011;42987;52.916;6.542;2022-12-29T03:22:01;4.43;;;2.22;;
57107;SDS011;42987;52.916;6.542;2022-12-29T03:24:54;4.30;;;1.98;;
57107;SDS011;42987;52.916;6.542;2022-12-29T03:27:49;3.55;;;2.00;;
57107;SDS011;42987;52.916;6.542;2022-12-29T03:30:18;3.38;;;2.10;;
57107;SDS011;42987;52.916;6.542;2022-12-29T03:32:49;4.20;;;2.33;;
57107;SDS011;42987;52.916;6.542;2022-12-29T03:35:24;4.05;;;2.30;;
57107;SDS011;42987;52.916;6.542;2022-12-29T03:37:55;3.57;;;2.10;;
57107;SDS011;42987;52.916;6.542;2022-12-29T03:40:26;3.42;;;2.10;;
57107;SDS011;42987;52.916;6.542;2022-12-29T03:42:54;3.40;;;2.03;;
57107;SDS011;42987;52.916;6.542;2022-12-29T03:45:21;3.78;;;1.80;;
57107;SDS011;42987;52.916;6.542;2022-12-29T03:47:47;5.10;;;2.00;;
57107;SDS011;42987;52.916;6.542;2022-12-29T03:50:13;3.88;;;1.90;;
57107;SDS011;42987;52.916;6.542;2022-12-29T03:52:39;3.78;;;2.00;;
57107;SDS011;42987;52.916;6.542;2022-12-29T03:55:05;3.17;;;1.70;;
57107;SDS011;42987;52.916;6.542;2022-12-29T03:57:31;4.40;;;1.90;;
57107;SDS011;42987;52.916;6.542;2022-12-29T03:59:56;5.43;;;2.13;;
57107;SDS011;42987;52.916;6.542;2022-12-29T04:02:22;5.00;;;2.08;;
57107;SDS011;42987;52.916;6.542;2022-12-29T04:04:48;3.42;;;1.75;;
57107;SDS011;42987;52.916;6.542;2022-12-29T04:07:14;4.40;;;1.63;;
57107;SDS011;42987;52.916;6.542;2022-12-29T04:09:40;5.95;;;2.15;;
57107;SDS011;42987;52.916;6.542;2022-12-29T04:12:06;2.35;;;1.23;;
57107;SDS011;42987;52.916;6.542;2022-12-29T04:14:32;3.20;;;1.30;;
57107;SDS011;42987;52.916;6.542;2022-12-29T04:16:57;4.45;;;1.20;;
57107;SDS011;42987;52.916;6.542;2022-12-29T04:19:23;2.95;;;1.00;;
57107;SDS011;42987;52.916;6.542;2022-12-29T04:21:49;5.25;;;1.50;;
57107;SDS011;42987;52.916;6.542;2022-12-29T04:24:14;5.00;;;1.67;;
57107;SDS011;42987;52.916;6.542;2022-12-29T04:26:40;5.13;;;1.20;;
57107;SDS011;42987;52.916;6.542;2022-12-29T04:29:06;4.82;;;1.70;;
57107;SDS011;42987;52.916;6.542;2022-12-29T04:31:32;5.35;;;1.08;;
57107;SDS011;42987;52.916;6.542;2022-12-29T04:33:58;4.30;;;1.20;;
57107;SDS011;42987;52.916;6.542;2022-12-29T04:36:25;2.40;;;0.70;;
57107;SDS011;42987;52.916;6.542;2022-12-29T04:38:54;3.13;;;1.05;;
57107;SDS011;42987;52.916;6.542;2022-12-29T04:41:20;4.82;;;1.33;;
57107;SDS011;42987;52.916;6.542;2022-12-29T04:43:46;4.53;;;1.50;;
57107;SDS011;42987;52.916;6.542;2022-12-29T04:46:11;3.38;;;1.30;;
57107;SDS011;42987;52.916;6.542;2022-12-29T04:48:38;3.92;;;1.63;;
57107;SDS011;42987;52.916;6.542;2022-12-29T04:51:03;4.97;;;1.60;;
57107;SDS011;42987;52.916;6.542;2022-12-29T04:53:29;5.40;;;1.85;;
57107;SDS011;42987;52.916;6.542;2022-12-29T04:55:55;5.78;;;1.85;;
57107;SDS011;42987;52.916;6.542;2022-12-29T04:58:21;5.38;;;1.52;;
57107;SDS011;42987;52.916;6.542;2022-12-29T05:00:47;5.00;;;1.35;;
57107;SDS011;42987;52.916;6.542;2022-12-29T05:03:13;7.93;;;1.90;;
57107;SDS011;42987;52.916;6.542;2022-12-29T05:05:38;8.50;;;1.90;;
57107;SDS011;42987;52.916;6.542;2022-12-29T05:08:04;8.50;;;1.70;;
57107;SDS011;42987;52.916;6.542;2022-12-29T05:10:30;5.90;;;1.50;;
57107;SDS011;42987;52.916;6.542;2022-12-29T05:12:57;8.15;;;1.73;;
57107;SDS011;42987;52.916;6.542;2022-12-29T05:15:23;9.43;;;1.77;;
57107;SDS011;42987;52.916;6.542;2022-12-29T05:17:49;10.75;;;2.08;;
57107;SDS011;42987;52.916;6.542;2022-12-29T05:20:14;7.85;;;1.70;;
57107;SDS011;42987;52.916;6.542;2022-12-29T05:22:40;8.05;;;2.45;;
57107;SDS011;42987;52.916;6.542;2022-12-29T05:25:06;8.48;;;1.90;;
57107;SDS011;42987;52.916;6.542;2022-12-29T05:27:32;11.20;;;2.85;;
57107;SDS011;42987;52.916;6.542;2022-12-29T05:29:58;7.82;;;1.85;;
57107;SDS011;42987;52.916;6.542;2022-12-29T05:32:24;9.27;;;2.20;;
57107;SDS011;42987;52.916;6.542;2022-12-29T05:34:50;8.63;;;1.73;;
57107;SDS011;42987;52.916;6.542;2022-12-29T05:37:15;8.98;;;1.88;;
57107;SDS011;42987;52.916;6.542;2022-12-29T05:39:41;7.30;;;1.65;;
57107;SDS011;42987;52.916;6.542;2022-12-29T05:42:10;6.93;;;1.35;;
57107;SDS011;42987;52.916;6.542;2022-12-29T05:44:36;8.82;;;1.67;;
57107;SDS011;42987;52.916;6.542;2022-12-29T05:47:02;7.03;;;1.38;;
57107;SDS011;42987;52.916;6.542;2022-12-29T05:49:28;7.95;;;1.73;;
57107;SDS011;42987;52.916;6.542;2022-12-29T05:51:53;8.82;;;1.85;;
57107;SDS011;42987;52.916;6.542;2022-12-29T05:54:19;7.95;;;1.52;;
57107;SDS011;42987;52.916;6.542;2022-12-29T05:56:45;6.15;;;1.20;;
57107;SDS011;42987;52.916;6.542;2022-12-29T05:59:11;6.78;;;1.50;;
57107;SDS011;42987;52.916;6.542;2022-12-29T06:01:36;5.05;;;1.40;;
57107;SDS011;42987;52.916;6.542;2022-12-29T06:04:02;6.28;;;1.35;;
57107;SDS011;42987;52.916;6.542;2022-12-29T06:06:28;5.53;;;1.58;;
57107;SDS011;42987;52.916;6.542;2022-12-29T06:08:54;7.28;;;1.50;;
57107;SDS011;42987;52.916;6.542;2022-12-29T06:11:20;5.65;;;1.60;;
57107;SDS011;42987;52.916;6.542;2022-12-29T06:13:45;6.10;;;1.90;;
57107;SDS011;42987;52.916;6.542;2022-12-29T06:16:11;7.88;;;1.73;;
57107;SDS011;42987;52.916;6.542;2022-12-29T06:18:37;7.45;;;1.90;;
57107;SDS011;42987;52.916;6.542;2022-12-29T06:21:03;6.65;;;1.58;;
57107;SDS011;42987;52.916;6.542;2022-12-29T06:23:30;8.73;;;2.15;;
57107;SDS011;42987;52.916;6.542;2022-12-29T06:25:56;8.57;;;1.75;;
57107;SDS011;42987;52.916;6.542;2022-12-29T06:28:22;9.05;;;2.05;;
57107;SDS011;42987;52.916;6.542;2022-12-29T06:30:48;10.30;;;2.03;;
57107;SDS011;42987;52.916;6.542;2022-12-29T06:33:14;10.02;;;1.77;;
57107;SDS011;42987;52.916;6.542;2022-12-29T06:35:41;10.60;;;1.95;;
57107;SDS011;42987;52.916;6.542;2022-12-29T06:38:10;7.38;;;2.20;;
57107;SDS011;42987;52.916;6.542;2022-12-29T06:40:36;12.30;;;2.13;;
57107;SDS011;42987;52.916;6.542;2022-12-29T06:43:02;8.05;;;1.70;;
57107;SDS011;42987;52.916;6.542;2022-12-29T06:45:28;7.70;;;1.95;;
57107;SDS011;42987;52.916;6.542;2022-12-29T06:47:54;8.90;;;2.10;;
57107;SDS011;42987;52.916;6.542;2022-12-29T06:50:19;7.38;;;1.65;;
57107;SDS011;42987;52.916;6.542;2022-12-29T06:52:45;9.38;;;2.30;;
57107;SDS011;42987;52.916;6.542;2022-12-29T06:55:11;9.63;;;1.95;;
57107;SDS011;42987;52.916;6.542;2022-12-29T06:57:36;9.13;;;1.90;;
57107;SDS011;42987;52.916;6.542;2022-12-29T07:00:03;9.55;;;1.88;;
57107;SDS011;42987;52.916;6.542;2022-12-29T07:02:30;9.35;;;2.35;;
57107;SDS011;42987;52.916;6.542;2022-12-29T07:04:55;8.88;;;1.92;;
57107;SDS011;42987;52.916;6.542;2022-12-29T07:07:21;7.40;;;1.92;;
57107;SDS011;42987;52.916;6.542;2022-12-29T07:09:47;8.75;;;1.95;;
57107;SDS011;42987;52.916;6.542;2022-12-29T07:12:13;10.15;;;1.80;;
57107;SDS011;42987;52.916;6.542;2022-12-29T07:14:40;8.52;;;2.05;;
57107;SDS011;42987;52.916;6.542;2022-12-29T07:17:06;9.85;;;2.05;;
57107;SDS011;42987;52.916;6.542;2022-12-29T07:19:32;9.82;;;2.05;;
57107;SDS011;42987;52.916;6.542;2022-12-29T07:21:58;9.55;;;2.25;;
57107;SDS011;42987;52.916;6.542;2022-12-29T07:24:24;9.30;;;2.65;;
57107;SDS011;42987;52.916;6.542;2022-12-29T07:26:51;13.10;;;2.85;;
57107;SDS011;42987;52.916;6.542;2022-12-29T07:29:17;12.55;;;2.70;;
57107;SDS011;42987;52.916;6.542;2022-12-29T07:31:42;14.48;;;3.15;;
57107;SDS011;42987;52.916;6.542;2022-12-29T07:34:08;13.25;;;2.42;;
57107;SDS011;42987;52.916;6.542;2022-12-29T07:36:34;10.63;;;2.72;;
57107;SDS011;42987;52.916;6.542;2022-12-29T07:39:01;11.02;;;2.50;;
57107;SDS011;42987;52.916;6.542;2022-12-29T07:43:56;10.32;;;2.30;;
57107;SDS011;42987;52.916;6.542;2022-12-29T07:46:22;11.73;;;2.35;;
57107;SDS011;42987;52.916;6.542;2022-12-29T07:48:48;11.90;;;2.38;;
57107;SDS011;42987;52.916;6.542;2022-12-29T07:51:13;12.18;;;2.58;;
57107;SDS011;42987;52.916;6.542;2022-12-29T07:53:39;12.57;;;2.60;;
57107;SDS011;42987;52.916;6.542;2022-12-29T07:56:05;13.05;;;2.70;;
57107;SDS011;42987;52.916;6.542;2022-12-29T07:58:31;10.73;;;1.90;;
57107;SDS011;42987;52.916;6.542;2022-12-29T08:00:57;13.05;;;2.92;;
57107;SDS011;42987;52.916;6.542;2022-12-29T08:03:23;13.02;;;2.58;;
57107;SDS011;42987;52.916;6.542;2022-12-29T08:05:50;16.10;;;2.72;;
57107;SDS011;42987;52.916;6.542;2022-12-29T08:08:16;11.13;;;2.83;;
57107;SDS011;42987;52.916;6.542;2022-12-29T08:10:42;13.85;;;2.30;;
57107;SDS011;42987;52.916;6.542;2022-12-29T08:13:08;11.38;;;2.58;;
57107;SDS011;42987;52.916;6.542;2022-12-29T08:15:34;14.77;;;3.13;;
57107;SDS011;42987;52.916;6.542;2022-12-29T08:18:02;14.07;;;2.90;;
57107;SDS011;42987;52.916;6.542;2022-12-29T08:20:28;11.70;;;2.88;;
57107;SDS011;42987;52.916;6.542;2022-12-29T08:22:54;15.45;;;3.15;;
57107;SDS011;42987;52.916;6.542;2022-12-29T08:25:20;14.65;;;3.80;;
57107;SDS011;42987;52.916;6.542;2022-12-29T08:27:46;10.90;;;2.88;;
57107;SDS011;42987;52.916;6.542;2022-12-29T08:30:15;14.25;;;3.35;;
57107;SDS011;42987;52.916;6.542;2022-12-29T08:32:41;12.13;;;3.05;;
57107;SDS011;42987;52.916;6.542;2022-12-29T08:35:08;12.90;;;2.95;;
57107;SDS011;42987;52.916;6.542;2022-12-29T08:37:34;13.77;;;2.70;;
57107;SDS011;42987;52.916;6.542;2022-12-29T08:39:59;15.25;;;3.42;;
57107;SDS011;42987;52.916;6.542;2022-12-29T08:42:28;17.00;;;3.28;;
57107;SDS011;42987;52.916;6.542;2022-12-29T08:44:56;13.52;;;2.85;;
57107;SDS011;42987;52.916;6.542;2022-12-29T08:47:25;14.23;;;3.92;;
57107;SDS011;42987;52.916;6.542;2022-12-29T08:49:51;15.20;;;3.97;;
57107;SDS011;42987;52.916;6.542;2022-12-29T08:52:20;19.35;;;3.40;;
57107;SDS011;42987;52.916;6.542;2022-12-29T08:54:46;11.43;;;3.28;;
57107;SDS011;42987;52.916;6.542;2022-12-29T08:57:12;11.20;;;2.80;;
57107;SDS011;42987;52.916;6.542;2022-12-29T08:59:38;17.40;;;3.78;;
57107;SDS011;42987;52.916;6.542;2022-12-29T09:02:04;14.35;;;3.28;;
57107;SDS011;42987;52.916;6.542;2022-12-29T09:04:30;10.98;;;2.75;;
57107;SDS011;42987;52.916;6.542;2022-12-29T09:06:55;14.07;;;2.83;;
57107;SDS011;42987;52.916;6.542;2022-12-29T09:09:21;13.75;;;3.42;;
57107;SDS011;42987;52.916;6.542;2022-12-29T09:11:47;11.75;;;2.85;;
57107;SDS011;42987;52.916;6.542;2022-12-29T09:14:13;15.20;;;3.00;;
57107;SDS011;42987;52.916;6.542;2022-12-29T09:16:39;12.43;;;2.80;;
57107;SDS011;42987;52.916;6.542;2022-12-29T09:19:23;13.95;;;3.13;;
57107;SDS011;42987;52.916;6.542;2022-12-29T09:51:23;11.30;;;3.55;;
57107;SDS011;42987;52.916;6.542;2022-12-29T09:54:21;13.90;;;3.10;;
57107;SDS011;42987;52.916;6.542;2022-12-29T09:57:20;15.05;;;3.50;;
57107;SDS011;42987;52.916;6.542;2022-12-29T09:59:57;16.30;;;2.80;;
57107;SDS011;42987;52.916;6.542;2022-12-29T10:02:38;13.65;;;2.95;;
57107;SDS011;42987;52.916;6.542;2022-12-29T10:05:17;14.05;;;2.45;;
57107;SDS011;42987;52.916;6.542;2022-12-29T10:08:02;13.82;;;3.45;;
57107;SDS011;42987;52.916;6.542;2022-12-29T10:16:26;14.25;;;3.05;;
57107;SDS011;42987;52.916;6.542;2022-12-29T10:19:15;16.00;;;3.13;;
57107;SDS011;42987;52.916;6.542;2022-12-29T10:22:09;14.13;;;2.92;;
57107;SDS011;42987;52.916;6.542;2022-12-29T10:24:54;17.35;;;4.10;;
57107;SDS011;42987;52.916;6.542;2022-12-29T10:27:30;14.88;;;3.42;;
57107;SDS011;42987;52.916;6.542;2022-12-29T10:29:58;13.85;;;2.90;;
57107;SDS011;42987;52.916;6.542;2022-12-29T10:32:31;17.92;;;3.70;;
57107;SDS011;42987;52.916;6.542;2022-12-29T10:38:47;13.40;;;2.92;;
57107;SDS011;42987;52.916;6.542;2022-12-29T10:41:10;11.35;;;2.72;;
57107;SDS011;42987;52.916;6.542;2022-12-29T10:43:51;10.40;;;2.80;;
57107;SDS011;42987;52.916;6.542;2022-12-29T10:46:21;11.77;;;2.97;;
57107;SDS011;42987;52.916;6.542;2022-12-29T10:48:49;12.63;;;2.90;;
57107;SDS011;42987;52.916;6.542;2022-12-29T10:51:19;13.80;;;3.72;;
57107;SDS011;42987;52.916;6.542;2022-12-29T10:54:22;13.32;;;3.45;;
57107;SDS011;42987;52.916;6.542;2022-12-29T10:59:29;11.18;;;3.03;;
57107;SDS011;42987;52.916;6.542;2022-12-29T11:07:08;8.70;;;2.60;;
57107;SDS011;42987;52.916;6.542;2022-12-29T11:09:36;10.95;;;3.20;;
57107;SDS011;42987;52.916;6.542;2022-12-29T11:12:46;15.07;;;3.47;;
57107;SDS011;42987;52.916;6.542;2022-12-29T11:15:15;12.75;;;3.03;;
57107;SDS011;42987;52.916;6.542;2022-12-29T11:18:01;12.50;;;2.85;;
57107;SDS011;42987;52.916;6.542;2022-12-29T11:20:46;15.05;;;3.45;;
57107;SDS011;42987;52.916;6.542;2022-12-29T11:35:29;13.30;;;3.35;;
57107;SDS011;42987;52.916;6.542;2022-12-29T11:37:57;13.23;;;3.72;;
57107;SDS011;42987;52.916;6.542;2022-12-29T11:40:32;15.18;;;3.70;;
57107;SDS011;42987;52.916;6.542;2022-12-29T11:43:31;13.38;;;3.63;;
57107;SDS011;42987;52.916;6.542;2022-12-29T11:46:06;15.15;;;3.63;;
57107;SDS011;42987;52.916;6.542;2022-12-29T11:48:58;17.98;;;3.88;;
57107;SDS011;42987;52.916;6.542;2022-12-29T11:51:29;15.70;;;3.70;;
57107;SDS011;42987;52.916;6.542;2022-12-29T11:54:03;16.50;;;4.22;;
57107;SDS011;42987;52.916;6.542;2022-12-29T11:56:34;18.63;;;4.07;;
57107;SDS011;42987;52.916;6.542;2022-12-29T11:59:21;18.15;;;4.60;;
57107;SDS011;42987;52.916;6.542;2022-12-29T12:01:49;16.30;;;4.07;;
57107;SDS011;42987;52.916;6.542;2022-12-29T12:04:19;16.35;;;4.03;;
57107;SDS011;42987;52.916;6.542;2022-12-29T12:06:49;18.65;;;3.80;;
57107;SDS011;42987;52.916;6.542;2022-12-29T12:09:35;20.30;;;4.78;;
57107;SDS011;42987;52.916;6.542;2022-12-29T12:12:11;20.30;;;4.40;;
57107;SDS011;42987;52.916;6.542;2022-12-29T12:14:59;18.38;;;4.30;;
57107;SDS011;42987;52.916;6.542;2022-12-29T12:20:16;17.60;;;4.22;;
57107;SDS011;42987;52.916;6.542;2022-12-29T12:23:02;19.35;;;4.00;;
57107;SDS011;42987;52.916;6.542;2022-12-29T12:31:55;21.17;;;4.18;;
57107;SDS011;42987;52.916;6.542;2022-12-29T12:37:15;15.95;;;3.70;;
57107;SDS011;42987;52.916;6.542;2022-12-29T12:45:48;19.13;;;4.03;;
57107;SDS011;42987;52.916;6.542;2022-12-29T12:48:27;20.55;;;4.88;;
57107;SDS011;42987;52.916;6.542;2022-12-29T12:51:16;22.65;;;4.88;;
57107;SDS011;42987;52.916;6.542;2022-12-29T13:01:31;22.25;;;4.13;;
57107;SDS011;42987;52.916;6.542;2022-12-29T13:12:53;25.20;;;4.32;;
57107;SDS011;42987;52.916;6.542;2022-12-29T13:29:50;12.02;;;3.05;;
57107;SDS011;42987;52.916;6.542;2022-12-29T13:37:56;12.25;;;3.15;;
57107;SDS011;42987;52.916;6.542;2022-12-29T13:40:32;14.52;;;2.90;;
57107;SDS011;42987;52.916;6.542;2022-12-29T13:43:07;12.13;;;3.30;;
57107;SDS011;42987;52.916;6.542;2022-12-29T13:45:34;16.27;;;3.33;;
57107;SDS011;42987;52.916;6.542;2022-12-29T13:48:14;14.68;;;3.92;;
57107;SDS011;42987;52.916;6.542;2022-12-29T13:50:52;13.90;;;3.08;;
57107;SDS011;42987;52.916;6.542;2022-12-29T13:53:42;14.35;;;3.22;;
57107;SDS011;42987;52.916;6.542;2022-12-29T14:01:54;13.75;;;2.88;;
57107;SDS011;42987;52.916;6.542;2022-12-29T14:04:28;15.77;;;3.15;;
57107;SDS011;42987;52.916;6.542;2022-12-29T14:09:53;17.27;;;3.40;;
57107;SDS011;42987;52.916;6.542;2022-12-29T14:12:40;14.38;;;2.92;;
57107;SDS011;42987;52.916;6.542;2022-12-29T14:17:34;12.00;;;2.88;;
57107;SDS011;42987;52.916;6.542;2022-12-29T14:20:00;12.02;;;2.53;;
57107;SDS011;42987;52.916;6.542;2022-12-29T14:22:28;12.13;;;2.58;;
57107;SDS011;42987;52.916;6.542;2022-12-29T14:24:54;12.43;;;2.40;;
57107;SDS011;42987;52.916;6.542;2022-12-29T14:29:47;13.70;;;3.83;;
57107;SDS011;42987;52.916;6.542;2022-12-29T14:34:51;12.05;;;2.42;;
57107;SDS011;42987;52.916;6.542;2022-12-29T14:37:25;10.75;;;2.60;;
57107;SDS011;42987;52.916;6.542;2022-12-29T14:40:06;13.15;;;2.67;;
57107;SDS011;42987;52.916;6.542;2022-12-29T14:42:38;12.55;;;2.40;;
57107;SDS011;42987;52.916;6.542;2022-12-29T14:47:41;12.52;;;2.35;;
57107;SDS011;42987;52.916;6.542;2022-12-29T14:56:15;10.80;;;2.20;;
57107;SDS011;42987;52.916;6.542;2022-12-29T14:58:50;8.60;;;2.60;;
57107;SDS011;42987;52.916;6.542;2022-12-29T15:03:59;12.10;;;1.92;;
57107;SDS011;42987;52.916;6.542;2022-12-29T15:06:30;10.30;;;2.25;;
57107;SDS011;42987;52.916;6.542;2022-12-29T15:09:06;11.88;;;2.00;;
57107;SDS011;42987;52.916;6.542;2022-12-29T15:11:50;11.48;;;2.10;;
57107;SDS011;42987;52.916;6.542;2022-12-29T15:14:27;12.40;;;2.88;;
57107;SDS011;42987;52.916;6.542;2022-12-29T15:17:02;11.85;;;2.53;;
57107;SDS011;42987;52.916;6.542;2022-12-29T15:19:36;12.00;;;2.40;;
57107;SDS011;42987;52.916;6.542;2022-12-29T15:22:02;10.15;;;2.17;;
57107;SDS011;42987;52.916;6.542;2022-12-29T15:24:28;13.02;;;2.65;;
57107;SDS011;42987;52.916;6.542;2022-12-29T15:26:54;13.75;;;2.65;;
57107;SDS011;42987;52.916;6.542;2022-12-29T15:29:31;10.60;;;2.63;;
57107;SDS011;42987;52.916;6.542;2022-12-29T15:32:02;12.40;;;2.80;;
57107;SDS011;42987;52.916;6.542;2022-12-29T15:34:47;12.45;;;2.60;;
57107;SDS011;42987;52.916;6.542;2022-12-29T15:37:23;16.15;;;3.65;;
57107;SDS011;42987;52.916;6.542;2022-12-29T15:39:54;15.27;;;3.33;;
57107;SDS011;42987;52.916;6.542;2022-12-29T15:42:29;11.60;;;2.35;;
57107;SDS011;42987;52.916;6.542;2022-12-29T15:44:57;15.68;;;3.30;;
57107;SDS011;42987;52.916;6.542;2022-12-29T15:47:24;12.65;;;2.72;;
57107;SDS011;42987;52.916;6.542;2022-12-29T15:50:04;13.68;;;3.15;;
57107;SDS011;42987;52.916;6.542;2022-12-29T15:52:34;15.93;;;2.97;;
57107;SDS011;42987;52.916;6.542;2022-12-29T15:55:00;14.43;;;2.95;;
57107;SDS011;42987;52.916;6.542;2022-12-29T15:57:36;16.40;;;3.10;;
57107;SDS011;42987;52.916;6.542;2022-12-29T16:00:23;11.13;;;3.33;;
57107;SDS011;42987;52.916;6.542;2022-12-29T16:02:55;14.80;;;3.17;;
57107;SDS011;42987;52.916;6.542;2022-12-29T16:05:23;15.80;;;3.83;;
57107;SDS011;42987;52.916;6.542;2022-12-29T16:10:49;15.50;;;3.25;;
57107;SDS011;42987;52.916;6.542;2022-12-29T16:13:19;13.93;;;3.38;;
57107;SDS011;42987;52.916;6.542;2022-12-29T16:16:07;14.68;;;3.63;;
57107;SDS011;42987;52.916;6.542;2022-12-29T16:18:39;13.93;;;3.45;;
57107;SDS011;42987;52.916;6.542;2022-12-29T16:24:46;12.65;;;3.15;;
57107;SDS011;42987;52.916;6.542;2022-12-29T16:29:41;10.43;;;3.53;;
57107;SDS011;42987;52.916;6.542;2022-12-29T16:32:24;11.35;;;3.10;;
57107;SDS011;42987;52.916;6.542;2022-12-29T16:35:11;11.38;;;3.08;;
57107;SDS011;42987;52.916;6.542;2022-12-29T16:37:40;8.88;;;2.92;;
57107;SDS011;42987;52.916;6.542;2022-12-29T16:42:54;10.70;;;3.40;;
57107;SDS011;42987;52.916;6.542;2022-12-29T16:50:42;2.60;;;0.68;;
57107;SDS011;42987;52.916;6.542;2022-12-29T16:53:31;3.20;;;0.50;;
57107;SDS011;42987;52.916;6.542;2022-12-29T16:55:59;4.65;;;0.73;;
57107;SDS011;42987;52.916;6.542;2022-12-29T16:58:30;1.90;;;0.60;;
57107;SDS011;42987;52.916;6.542;2022-12-29T17:00:58;2.67;;;0.60;;
57107;SDS011;42987;52.916;6.542;2022-12-29T17:03:31;1.75;;;0.50;;
57107;SDS011;42987;52.916;6.542;2022-12-29T17:06:00;2.08;;;0.52;;
57107;SDS011;42987;52.916;6.542;2022-12-29T17:08:27;2.35;;;0.60;;
57107;SDS011;42987;52.916;6.542;2022-12-29T17:10:53;3.80;;;0.70;;
57107;SDS011;42987;52.916;6.542;2022-12-29T17:13:44;3.78;;;1.10;;
57107;SDS011;42987;52.916;6.542;2022-12-29T17:16:10;2.88;;;1.00;;
57107;SDS011;42987;52.916;6.542;2022-12-29T17:18:36;3.78;;;1.00;;
57107;SDS011;42987;52.916;6.542;2022-12-29T17:21:05;3.42;;;0.80;;
57107;SDS011;42987;52.916;6.542;2022-12-29T17:23:33;4.28;;;1.40;;
57107;SDS011;42987;52.916;6.542;2022-12-29T17:25:59;5.75;;;1.67;;
57107;SDS011;42987;52.916;6.542;2022-12-29T17:28:27;6.65;;;1.88;;
57107;SDS011;42987;52.916;6.542;2022-12-29T17:31:03;5.85;;;1.98;;
57107;SDS011;42987;52.916;6.542;2022-12-29T17:33:34;10.02;;;2.80;;
57107;SDS011;42987;52.916;6.542;2022-12-29T17:36:06;8.43;;;3.03;;
57107;SDS011;42987;52.916;6.542;2022-12-29T17:38:35;11.63;;;3.95;;
57107;SDS011;42987;52.916;6.542;2022-12-29T17:41:02;7.70;;;3.58;;
57107;SDS011;42987;52.916;6.542;2022-12-29T17:43:28;9.80;;;4.35;;
57107;SDS011;42987;52.916;6.542;2022-12-29T17:45:54;10.18;;;4.50;;
57107;SDS011;42987;52.916;6.542;2022-12-29T17:48:22;13.88;;;5.78;;
57107;SDS011;42987;52.916;6.542;2022-12-29T17:50:49;14.00;;;6.05;;
57107;SDS011;42987;52.916;6.542;2022-12-29T17:53:20;15.20;;;6.60;;
57107;SDS011;42987;52.916;6.542;2022-12-29T17:55:48;14.77;;;6.93;;
57107;SDS011;42987;52.916;6.542;2022-12-29T17:58:15;17.92;;;7.13;;
57107;SDS011;42987;52.916;6.542;2022-12-29T18:00:42;15.18;;;7.45;;
57107;SDS011;42987;52.916;6.542;2022-12-29T18:03:12;13.63;;;6.78;;
57107;SDS011;42987;52.916;6.542;2022-12-29T18:05:40;17.67;;;8.32;;
57107;SDS011;42987;52.916;6.542;2022-12-29T18:08:12;20.02;;;8.25;;
57107;SDS011;42987;52.916;6.542;2022-12-29T18:10:38;15.90;;;7.30;;
57107;SDS011;42987;52.916;6.542;2022-12-29T18:13:04;17.75;;;6.90;;
57107;SDS011;42987;52.916;6.542;2022-12-29T18:15:34;18.67;;;6.78;;
57107;SDS011;42987;52.916;6.542;2022-12-29T18:18:01;15.85;;;6.63;;
57107;SDS011;42987;52.916;6.542;2022-12-29T18:20:28;17.05;;;6.30;;
57107;SDS011;42987;52.916;6.542;2022-12-29T18:22:55;16.55;;;5.72;;
57107;SDS011;42987;52.916;6.542;2022-12-29T18:25:42;14.13;;;5.43;;